sensor_id;sensor_type;location;lat;lon;timestamp;P1;durP1;ratioP1;P2;durP2;ratioP2
8958;SDS011;4514;49.476;8.484;2024-01-30T00:02:38;15.50;;;10.23;;
8958;SDS011;4514;49.476;8.484;2024-01-30T00:05:24;12.23;;;10.63;;
8958;SDS011;4514;49.476;8.484;2024-01-30T00:08:10;12.63;;;10.70;;
8958;SDS011;4514;49.476;8.484;2024-01-30T00:10:55;11.57;;;9.67;;
8958;SDS011;4514;49.476;8.484;2024-01-30T00:13:41;11.43;;;10.17;;
8958;SDS011;4514;49.476;8.484;2024-01-30T00:16:27;12.10;;;9.90;;
8958;SDS011;4514;49.476;8.484;2024-01-30T00:19:13;11.23;;;9.27;;
8958;SDS011;4514;49.476;8.484;2024-01-30T00:22:01;12.40;;;8.93;;
8958;SDS011;4514;49.476;8.484;2024-01-30T00:24:47;12.47;;;10.03;;
8958;SDS011;4514;49.476;8.484;2024-01-30T00:27:32;11.97;;;9.50;;
8958;SDS011;4514;49.476;8.484;2024-01-30T00:30:20;11.43;;;9.37;;
8958;SDS011;4514;49.476;8.484;2024-01-30T00:33:06;13.37;;;10.10;;
8958;SDS011;4514;49.476;8.484;2024-01-30T00:35:53;9.97;;;8.97;;
8958;SDS011;4514;49.476;8.484;2024-01-30T00:38:39;12.10;;;9.47;;
8958;SDS011;4514;49.476;8.484;2024-01-30T00:41:26;12.47;;;10.20;;
8958;SDS011;4514;49.476;8.484;2024-01-30T00:44:12;11.20;;;9.70;;
8958;SDS011;4514;49.476;8.484;2024-01-30T00:46:57;14.73;;;12.37;;
8958;SDS011;4514;49.476;8.484;2024-01-30T00:49:43;17.30;;;13.20;;
8958;SDS011;4514;49.476;8.484;2024-01-30T00:52:29;13.00;;;11.60;;
8958;SDS011;4514;49.476;8.484;2024-01-30T00:55:18;16.30;;;12.63;;
8958;SDS011;4514;49.476;8.484;2024-01-30T00:58:04;16.27;;;13.10;;
8958;SDS011;4514;49.476;8.484;2024-01-30T01:00:50;17.43;;;12.13;;
8958;SDS011;4514;49.476;8.484;2024-01-30T01:03:38;13.37;;;11.77;;
8958;SDS011;4514;49.476;8.484;2024-01-30T01:06:26;13.67;;;11.23;;
8958;SDS011;4514;49.476;8.484;2024-01-30T01:09:12;17.90;;;11.83;;
8958;SDS011;4514;49.476;8.484;2024-01-30T01:11:57;12.20;;;10.73;;
8958;SDS011;4514;49.476;8.484;2024-01-30T01:14:43;14.73;;;10.57;;
8958;SDS011;4514;49.476;8.484;2024-01-30T01:17:29;12.70;;;10.20;;
8958;SDS011;4514;49.476;8.484;2024-01-30T01:20:15;14.30;;;10.27;;
8958;SDS011;4514;49.476;8.484;2024-01-30T01:23:01;11.23;;;10.07;;
8958;SDS011;4514;49.476;8.484;2024-01-30T01:25:46;13.40;;;10.10;;
8958;SDS011;4514;49.476;8.484;2024-01-30T01:28:32;10.50;;;9.37;;
8958;SDS011;4514;49.476;8.484;2024-01-30T01:31:18;10.90;;;9.63;;
8958;SDS011;4514;49.476;8.484;2024-01-30T01:34:03;11.63;;;9.40;;
8958;SDS011;4514;49.476;8.484;2024-01-30T01:36:49;12.77;;;9.63;;
8958;SDS011;4514;49.476;8.484;2024-01-30T01:39:40;12.40;;;8.93;;
8958;SDS011;4514;49.476;8.484;2024-01-30T01:42:26;11.87;;;9.60;;
8958;SDS011;4514;49.476;8.484;2024-01-30T01:45:11;13.07;;;9.50;;
8958;SDS011;4514;49.476;8.484;2024-01-30T01:47:57;10.10;;;9.10;;
8958;SDS011;4514;49.476;8.484;2024-01-30T01:50:43;10.37;;;8.97;;
8958;SDS011;4514;49.476;8.484;2024-01-30T01:53:29;9.83;;;8.83;;
8958;SDS011;4514;49.476;8.484;2024-01-30T01:56:15;11.53;;;8.70;;
8958;SDS011;4514;49.476;8.484;2024-01-30T01:59:07;12.13;;;8.70;;
8958;SDS011;4514;49.476;8.484;2024-01-30T02:01:54;9.63;;;8.40;;
8958;SDS011;4514;49.476;8.484;2024-01-30T02:04:41;10.93;;;8.83;;
8958;SDS011;4514;49.476;8.484;2024-01-30T02:07:27;9.27;;;8.10;;
8958;SDS011;4514;49.476;8.484;2024-01-30T02:10:13;11.23;;;8.43;;
8958;SDS011;4514;49.476;8.484;2024-01-30T02:12:59;10.40;;;8.67;;
8958;SDS011;4514;49.476;8.484;2024-01-30T02:15:48;10.47;;;8.50;;
8958;SDS011;4514;49.476;8.484;2024-01-30T02:18:34;11.17;;;8.53;;
8958;SDS011;4514;49.476;8.484;2024-01-30T02:21:21;9.53;;;8.53;;
8958;SDS011;4514;49.476;8.484;2024-01-30T02:24:06;10.33;;;8.27;;
8958;SDS011;4514;49.476;8.484;2024-01-30T02:26:52;9.77;;;8.43;;
8958;SDS011;4514;49.476;8.484;2024-01-30T02:29:38;10.60;;;8.27;;
8958;SDS011;4514;49.476;8.484;2024-01-30T02:32:26;12.33;;;8.40;;
8958;SDS011;4514;49.476;8.484;2024-01-30T02:35:11;10.33;;;7.10;;
8958;SDS011;4514;49.476;8.484;2024-01-30T02:37:57;12.67;;;8.00;;
8958;SDS011;4514;49.476;8.484;2024-01-30T02:40:43;12.43;;;8.60;;
8958;SDS011;4514;49.476;8.484;2024-01-30T02:43:28;9.37;;;8.17;;
8958;SDS011;4514;49.476;8.484;2024-01-30T02:46:14;9.90;;;8.00;;
8958;SDS011;4514;49.476;8.484;2024-01-30T02:49:00;11.50;;;8.60;;
8958;SDS011;4514;49.476;8.484;2024-01-30T02:51:45;9.93;;;8.23;;
8958;SDS011;4514;49.476;8.484;2024-01-30T02:54:31;8.93;;;7.80;;
8958;SDS011;4514;49.476;8.484;2024-01-30T02:57:17;9.80;;;7.57;;
8958;SDS011;4514;49.476;8.484;2024-01-30T03:00:03;10.23;;;8.20;;
8958;SDS011;4514;49.476;8.484;2024-01-30T03:02:50;9.80;;;7.80;;
8958;SDS011;4514;49.476;8.484;2024-01-30T03:05:36;9.87;;;7.47;;
8958;SDS011;4514;49.476;8.484;2024-01-30T03:08:22;8.83;;;7.90;;
8958;SDS011;4514;49.476;8.484;2024-01-30T03:11:08;8.53;;;7.63;;
8958;SDS011;4514;49.476;8.484;2024-01-30T03:13:53;10.37;;;8.00;;
8958;SDS011;4514;49.476;8.484;2024-01-30T03:16:39;9.77;;;7.63;;
8958;SDS011;4514;49.476;8.484;2024-01-30T03:19:25;14.77;;;8.77;;
8958;SDS011;4514;49.476;8.484;2024-01-30T03:22:11;10.83;;;8.33;;
8958;SDS011;4514;49.476;8.484;2024-01-30T03:24:56;8.87;;;7.97;;
8958;SDS011;4514;49.476;8.484;2024-01-30T03:27:42;10.70;;;7.93;;
8958;SDS011;4514;49.476;8.484;2024-01-30T03:30:28;10.73;;;7.90;;
8958;SDS011;4514;49.476;8.484;2024-01-30T03:33:16;9.90;;;7.97;;
8958;SDS011;4514;49.476;8.484;2024-01-30T03:36:04;10.47;;;8.50;;
8958;SDS011;4514;49.476;8.484;2024-01-30T03:38:50;9.90;;;7.70;;
8958;SDS011;4514;49.476;8.484;2024-01-30T03:41:36;10.30;;;8.33;;
8958;SDS011;4514;49.476;8.484;2024-01-30T03:44:24;8.87;;;7.87;;
8958;SDS011;4514;49.476;8.484;2024-01-30T03:47:12;10.27;;;7.37;;
8958;SDS011;4514;49.476;8.484;2024-01-30T03:49:58;8.97;;;7.30;;
8958;SDS011;4514;49.476;8.484;2024-01-30T03:52:44;9.17;;;8.17;;
8958;SDS011;4514;49.476;8.484;2024-01-30T03:55:29;9.60;;;7.73;;
8958;SDS011;4514;49.476;8.484;2024-01-30T03:58:15;11.77;;;8.50;;
8958;SDS011;4514;49.476;8.484;2024-01-30T04:01:03;8.77;;;7.87;;
8958;SDS011;4514;49.476;8.484;2024-01-30T04:03:51;9.33;;;8.33;;
8958;SDS011;4514;49.476;8.484;2024-01-30T04:06:37;11.13;;;8.90;;
8958;SDS011;4514;49.476;8.484;2024-01-30T04:09:22;11.03;;;9.03;;
8958;SDS011;4514;49.476;8.484;2024-01-30T04:12:08;11.33;;;9.77;;
8958;SDS011;4514;49.476;8.484;2024-01-30T04:14:59;11.20;;;9.97;;
8958;SDS011;4514;49.476;8.484;2024-01-30T04:17:44;15.20;;;10.00;;
8958;SDS011;4514;49.476;8.484;2024-01-30T04:20:30;12.93;;;9.77;;
8958;SDS011;4514;49.476;8.484;2024-01-30T04:23:16;13.40;;;10.13;;
8958;SDS011;4514;49.476;8.484;2024-01-30T04:26:01;11.60;;;9.80;;
8958;SDS011;4514;49.476;8.484;2024-01-30T04:28:48;12.27;;;10.10;;
8958;SDS011;4514;49.476;8.484;2024-01-30T04:31:35;12.60;;;10.00;;
8958;SDS011;4514;49.476;8.484;2024-01-30T04:34:21;11.37;;;9.13;;
8958;SDS011;4514;49.476;8.484;2024-01-30T04:37:07;15.33;;;9.40;;
8958;SDS011;4514;49.476;8.484;2024-01-30T04:39:53;11.13;;;8.93;;
8958;SDS011;4514;49.476;8.484;2024-01-30T04:42:39;10.43;;;9.30;;
8958;SDS011;4514;49.476;8.484;2024-01-30T04:45:24;10.73;;;8.67;;
8958;SDS011;4514;49.476;8.484;2024-01-30T04:48:10;11.50;;;9.50;;
8958;SDS011;4514;49.476;8.484;2024-01-30T04:50:56;14.27;;;9.20;;
8958;SDS011;4514;49.476;8.484;2024-01-30T04:53:41;11.90;;;9.57;;
8958;SDS011;4514;49.476;8.484;2024-01-30T04:56:29;10.07;;;8.70;;
8958;SDS011;4514;49.476;8.484;2024-01-30T04:59:16;12.00;;;9.40;;
8958;SDS011;4514;49.476;8.484;2024-01-30T05:02:10;13.40;;;9.50;;
8958;SDS011;4514;49.476;8.484;2024-01-30T05:04:58;11.73;;;9.30;;
8958;SDS011;4514;49.476;8.484;2024-01-30T05:07:45;10.73;;;9.60;;
8958;SDS011;4514;49.476;8.484;2024-01-30T05:10:30;11.03;;;9.03;;
8958;SDS011;4514;49.476;8.484;2024-01-30T05:13:16;12.87;;;9.80;;
8958;SDS011;4514;49.476;8.484;2024-01-30T05:16:02;11.93;;;9.43;;
8958;SDS011;4514;49.476;8.484;2024-01-30T05:18:49;10.70;;;9.53;;
8958;SDS011;4514;49.476;8.484;2024-01-30T05:21:35;10.30;;;9.20;;
8958;SDS011;4514;49.476;8.484;2024-01-30T05:24:20;10.80;;;9.00;;
8958;SDS011;4514;49.476;8.484;2024-01-30T05:27:06;11.27;;;9.23;;
8958;SDS011;4514;49.476;8.484;2024-01-30T05:29:52;10.27;;;9.20;;
8958;SDS011;4514;49.476;8.484;2024-01-30T05:32:37;12.10;;;9.63;;
8958;SDS011;4514;49.476;8.484;2024-01-30T05:35:23;10.40;;;9.27;;
8958;SDS011;4514;49.476;8.484;2024-01-30T05:38:11;11.57;;;9.67;;
8958;SDS011;4514;49.476;8.484;2024-01-30T05:40:57;20.60;;;15.83;;
8958;SDS011;4514;49.476;8.484;2024-01-30T05:43:46;12.13;;;10.67;;
8958;SDS011;4514;49.476;8.484;2024-01-30T05:46:31;13.50;;;10.97;;
8958;SDS011;4514;49.476;8.484;2024-01-30T05:49:18;10.50;;;9.40;;
8958;SDS011;4514;49.476;8.484;2024-01-30T05:52:04;10.87;;;9.67;;
8958;SDS011;4514;49.476;8.484;2024-01-30T05:54:50;12.90;;;10.20;;
8958;SDS011;4514;49.476;8.484;2024-01-30T05:57:36;12.07;;;10.03;;
8958;SDS011;4514;49.476;8.484;2024-01-30T06:00:22;13.33;;;10.47;;
8958;SDS011;4514;49.476;8.484;2024-01-30T06:03:08;11.83;;;10.30;;
8958;SDS011;4514;49.476;8.484;2024-01-30T06:05:54;13.07;;;9.80;;
8958;SDS011;4514;49.476;8.484;2024-01-30T06:08:40;12.33;;;9.67;;
8958;SDS011;4514;49.476;8.484;2024-01-30T06:11:25;12.53;;;9.73;;
8958;SDS011;4514;49.476;8.484;2024-01-30T06:14:11;13.43;;;10.20;;
8958;SDS011;4514;49.476;8.484;2024-01-30T06:16:57;12.47;;;9.60;;
8958;SDS011;4514;49.476;8.484;2024-01-30T06:19:45;13.48;;;11.20;;
8958;SDS011;4514;49.476;8.484;2024-01-30T06:22:33;14.60;;;10.13;;
8958;SDS011;4514;49.476;8.484;2024-01-30T06:25:21;11.83;;;9.70;;
8958;SDS011;4514;49.476;8.484;2024-01-30T06:28:07;13.60;;;9.87;;
8958;SDS011;4514;49.476;8.484;2024-01-30T06:30:52;12.77;;;9.63;;
8958;SDS011;4514;49.476;8.484;2024-01-30T06:33:38;11.40;;;9.90;;
8958;SDS011;4514;49.476;8.484;2024-01-30T06:36:24;11.37;;;9.97;;
8958;SDS011;4514;49.476;8.484;2024-01-30T06:39:10;10.93;;;9.73;;
8958;SDS011;4514;49.476;8.484;2024-01-30T06:41:56;11.90;;;9.97;;
8958;SDS011;4514;49.476;8.484;2024-01-30T06:44:42;11.37;;;9.83;;
8958;SDS011;4514;49.476;8.484;2024-01-30T06:47:28;12.17;;;9.53;;
8958;SDS011;4514;49.476;8.484;2024-01-30T06:50:16;13.43;;;9.67;;
8958;SDS011;4514;49.476;8.484;2024-01-30T06:53:04;11.17;;;9.90;;
8958;SDS011;4514;49.476;8.484;2024-01-30T06:55:51;10.57;;;9.13;;
8958;SDS011;4514;49.476;8.484;2024-01-30T06:58:37;13.90;;;9.40;;
8958;SDS011;4514;49.476;8.484;2024-01-30T07:01:27;14.03;;;10.23;;
8958;SDS011;4514;49.476;8.484;2024-01-30T07:04:16;12.13;;;10.30;;
8958;SDS011;4514;49.476;8.484;2024-01-30T07:07:03;12.73;;;10.13;;
8958;SDS011;4514;49.476;8.484;2024-01-30T07:09:57;10.93;;;9.67;;
8958;SDS011;4514;49.476;8.484;2024-01-30T07:12:45;12.30;;;10.70;;
8958;SDS011;4514;49.476;8.484;2024-01-30T07:15:30;13.43;;;10.57;;
8958;SDS011;4514;49.476;8.484;2024-01-30T07:18:16;12.43;;;11.00;;
8958;SDS011;4514;49.476;8.484;2024-01-30T07:21:02;13.03;;;10.37;;
8958;SDS011;4514;49.476;8.484;2024-01-30T07:23:50;14.60;;;10.27;;
8958;SDS011;4514;49.476;8.484;2024-01-30T07:26:35;13.77;;;10.93;;
8958;SDS011;4514;49.476;8.484;2024-01-30T07:29:21;14.93;;;10.73;;
8958;SDS011;4514;49.476;8.484;2024-01-30T07:32:07;13.97;;;10.53;;
8958;SDS011;4514;49.476;8.484;2024-01-30T07:34:53;12.90;;;10.60;;
8958;SDS011;4514;49.476;8.484;2024-01-30T07:37:39;13.77;;;10.37;;
8958;SDS011;4514;49.476;8.484;2024-01-30T07:40:24;13.40;;;11.20;;
8958;SDS011;4514;49.476;8.484;2024-01-30T07:43:10;13.03;;;10.83;;
8958;SDS011;4514;49.476;8.484;2024-01-30T07:45:56;11.70;;;10.23;;
8958;SDS011;4514;49.476;8.484;2024-01-30T07:48:42;12.77;;;11.17;;
8958;SDS011;4514;49.476;8.484;2024-01-30T07:51:27;15.00;;;11.10;;
8958;SDS011;4514;49.476;8.484;2024-01-30T07:54:14;16.30;;;11.60;;
8958;SDS011;4514;49.476;8.484;2024-01-30T07:57:00;16.40;;;11.60;;
8958;SDS011;4514;49.476;8.484;2024-01-30T07:59:46;12.87;;;11.27;;
8958;SDS011;4514;49.476;8.484;2024-01-30T08:02:32;13.50;;;11.30;;
8958;SDS011;4514;49.476;8.484;2024-01-30T08:05:17;14.23;;;11.60;;
8958;SDS011;4514;49.476;8.484;2024-01-30T08:08:03;13.20;;;11.43;;
8958;SDS011;4514;49.476;8.484;2024-01-30T08:10:49;15.43;;;11.03;;
8958;SDS011;4514;49.476;8.484;2024-01-30T08:13:35;13.93;;;11.10;;
8958;SDS011;4514;49.476;8.484;2024-01-30T08:16:21;16.10;;;11.47;;
8958;SDS011;4514;49.476;8.484;2024-01-30T08:19:09;14.40;;;11.00;;
8958;SDS011;4514;49.476;8.484;2024-01-30T08:21:55;12.73;;;11.17;;
8958;SDS011;4514;49.476;8.484;2024-01-30T08:24:41;11.97;;;10.73;;
8958;SDS011;4514;49.476;8.484;2024-01-30T08:27:26;15.07;;;10.63;;
8958;SDS011;4514;49.476;8.484;2024-01-30T08:30:12;13.57;;;10.77;;
8958;SDS011;4514;49.476;8.484;2024-01-30T08:32:58;13.57;;;10.67;;
8958;SDS011;4514;49.476;8.484;2024-01-30T08:35:44;13.80;;;11.13;;
8958;SDS011;4514;49.476;8.484;2024-01-30T08:38:29;12.97;;;11.07;;
8958;SDS011;4514;49.476;8.484;2024-01-30T08:41:16;13.03;;;10.77;;
8958;SDS011;4514;49.476;8.484;2024-01-30T08:44:02;13.70;;;10.60;;
8958;SDS011;4514;49.476;8.484;2024-01-30T08:46:52;13.53;;;11.50;;
8958;SDS011;4514;49.476;8.484;2024-01-30T08:49:38;14.50;;;11.03;;
8958;SDS011;4514;49.476;8.484;2024-01-30T08:52:24;13.13;;;11.00;;
8958;SDS011;4514;49.476;8.484;2024-01-30T08:55:12;12.53;;;10.20;;
8958;SDS011;4514;49.476;8.484;2024-01-30T08:57:57;13.17;;;10.90;;
8958;SDS011;4514;49.476;8.484;2024-01-30T09:00:45;16.20;;;11.27;;
8958;SDS011;4514;49.476;8.484;2024-01-30T09:03:32;12.40;;;11.03;;
8958;SDS011;4514;49.476;8.484;2024-01-30T09:06:20;13.77;;;11.13;;
8958;SDS011;4514;49.476;8.484;2024-01-30T09:09:06;14.03;;;10.73;;
8958;SDS011;4514;49.476;8.484;2024-01-30T09:11:51;20.13;;;14.80;;
8958;SDS011;4514;49.476;8.484;2024-01-30T09:14:37;23.27;;;17.87;;
8958;SDS011;4514;49.476;8.484;2024-01-30T09:17:24;21.90;;;16.40;;
8958;SDS011;4514;49.476;8.484;2024-01-30T09:20:10;12.90;;;10.90;;
8958;SDS011;4514;49.476;8.484;2024-01-30T09:22:56;14.03;;;11.80;;
8958;SDS011;4514;49.476;8.484;2024-01-30T09:25:41;17.87;;;11.90;;
8958;SDS011;4514;49.476;8.484;2024-01-30T09:28:27;15.77;;;12.13;;
8958;SDS011;4514;49.476;8.484;2024-01-30T09:31:13;13.93;;;11.93;;
8958;SDS011;4514;49.476;8.484;2024-01-30T09:33:58;14.93;;;11.60;;
8958;SDS011;4514;49.476;8.484;2024-01-30T09:36:47;16.70;;;11.97;;
8958;SDS011;4514;49.476;8.484;2024-01-30T09:39:32;15.67;;;11.27;;
8958;SDS011;4514;49.476;8.484;2024-01-30T09:42:23;14.20;;;10.87;;
8958;SDS011;4514;49.476;8.484;2024-01-30T09:45:14;16.60;;;12.03;;
8958;SDS011;4514;49.476;8.484;2024-01-30T09:48:00;12.87;;;11.27;;
8958;SDS011;4514;49.476;8.484;2024-01-30T09:50:46;37.83;;;26.90;;
8958;SDS011;4514;49.476;8.484;2024-01-30T09:53:31;25.90;;;18.73;;
8958;SDS011;4514;49.476;8.484;2024-01-30T09:56:17;31.43;;;23.10;;
8958;SDS011;4514;49.476;8.484;2024-01-30T09:59:03;14.17;;;11.13;;
8958;SDS011;4514;49.476;8.484;2024-01-30T10:01:51;17.03;;;11.77;;
8958;SDS011;4514;49.476;8.484;2024-01-30T10:04:37;13.07;;;11.10;;
8958;SDS011;4514;49.476;8.484;2024-01-30T10:07:23;15.43;;;11.17;;
8958;SDS011;4514;49.476;8.484;2024-01-30T10:10:08;15.40;;;11.67;;
8958;SDS011;4514;49.476;8.484;2024-01-30T10:12:54;15.93;;;12.00;;
8958;SDS011;4514;49.476;8.484;2024-01-30T10:15:40;34.67;;;28.87;;
8958;SDS011;4514;49.476;8.484;2024-01-30T10:18:28;32.57;;;25.90;;
8958;SDS011;4514;49.476;8.484;2024-01-30T10:21:16;23.37;;;17.50;;
8958;SDS011;4514;49.476;8.484;2024-01-30T10:24:02;14.93;;;11.47;;
8958;SDS011;4514;49.476;8.484;2024-01-30T10:26:48;15.00;;;11.57;;
8958;SDS011;4514;49.476;8.484;2024-01-30T10:29:34;12.87;;;11.40;;
8958;SDS011;4514;49.476;8.484;2024-01-30T10:32:20;12.70;;;11.40;;
8958;SDS011;4514;49.476;8.484;2024-01-30T10:35:06;13.97;;;11.50;;
8958;SDS011;4514;49.476;8.484;2024-01-30T10:37:54;14.43;;;11.37;;
8958;SDS011;4514;49.476;8.484;2024-01-30T10:40:42;16.50;;;11.80;;
8958;SDS011;4514;49.476;8.484;2024-01-30T10:43:33;14.40;;;12.00;;
8958;SDS011;4514;49.476;8.484;2024-01-30T10:46:21;13.90;;;11.07;;
8958;SDS011;4514;49.476;8.484;2024-01-30T10:49:11;14.43;;;10.97;;
8958;SDS011;4514;49.476;8.484;2024-01-30T10:52:00;15.90;;;11.37;;
8958;SDS011;4514;49.476;8.484;2024-01-30T10:54:47;13.83;;;11.30;;
8958;SDS011;4514;49.476;8.484;2024-01-30T10:57:35;13.73;;;11.00;;
8958;SDS011;4514;49.476;8.484;2024-01-30T11:00:26;18.07;;;12.00;;
8958;SDS011;4514;49.476;8.484;2024-01-30T11:03:14;17.67;;;11.00;;
8958;SDS011;4514;49.476;8.484;2024-01-30T11:06:00;15.83;;;11.37;;
8958;SDS011;4514;49.476;8.484;2024-01-30T11:08:49;15.33;;;11.30;;
8958;SDS011;4514;49.476;8.484;2024-01-30T11:11:52;14.30;;;10.93;;
8958;SDS011;4514;49.476;8.484;2024-01-30T11:14:48;12.27;;;10.75;;
8958;SDS011;4514;49.476;8.484;2024-01-30T11:17:40;12.50;;;11.13;;
8958;SDS011;4514;49.476;8.484;2024-01-30T11:20:30;11.77;;;9.97;;
8958;SDS011;4514;49.476;8.484;2024-01-30T11:23:16;13.80;;;10.40;;
8958;SDS011;4514;49.476;8.484;2024-01-30T11:26:02;14.40;;;10.10;;
8958;SDS011;4514;49.476;8.484;2024-01-30T11:28:52;11.80;;;10.50;;
8958;SDS011;4514;49.476;8.484;2024-01-30T11:31:38;12.17;;;10.70;;
8958;SDS011;4514;49.476;8.484;2024-01-30T11:34:26;12.07;;;10.60;;
8958;SDS011;4514;49.476;8.484;2024-01-30T11:37:12;12.77;;;11.35;;
8958;SDS011;4514;49.476;8.484;2024-01-30T11:39:58;13.32;;;11.05;;
8958;SDS011;4514;49.476;8.484;2024-01-30T11:42:44;12.40;;;10.80;;
8958;SDS011;4514;49.476;8.484;2024-01-30T11:45:31;12.45;;;10.98;;
8958;SDS011;4514;49.476;8.484;2024-01-30T11:48:17;11.55;;;10.43;;
8958;SDS011;4514;49.476;8.484;2024-01-30T11:51:03;11.80;;;10.52;;
8958;SDS011;4514;49.476;8.484;2024-01-30T11:53:49;11.27;;;9.75;;
8958;SDS011;4514;49.476;8.484;2024-01-30T11:56:36;12.15;;;9.57;;
8958;SDS011;4514;49.476;8.484;2024-01-30T11:59:24;12.52;;;9.93;;
8958;SDS011;4514;49.476;8.484;2024-01-30T12:02:14;10.85;;;9.75;;
8958;SDS011;4514;49.476;8.484;2024-01-30T12:05:04;18.35;;;16.08;;
8958;SDS011;4514;49.476;8.484;2024-01-30T12:07:50;15.68;;;12.85;;
8958;SDS011;4514;49.476;8.484;2024-01-30T12:10:37;12.15;;;10.82;;
8958;SDS011;4514;49.476;8.484;2024-01-30T12:13:22;11.90;;;9.65;;
8958;SDS011;4514;49.476;8.484;2024-01-30T12:16:10;12.25;;;10.27;;
8958;SDS011;4514;49.476;8.484;2024-01-30T12:19:00;14.52;;;9.63;;
8958;SDS011;4514;49.476;8.484;2024-01-30T12:21:47;13.45;;;10.65;;
8958;SDS011;4514;49.476;8.484;2024-01-30T12:24:33;12.77;;;11.40;;
8958;SDS011;4514;49.476;8.484;2024-01-30T12:27:18;11.60;;;10.32;;
8958;SDS011;4514;49.476;8.484;2024-01-30T12:30:07;11.25;;;9.90;;
8958;SDS011;4514;49.476;8.484;2024-01-30T12:32:54;11.70;;;9.90;;
8958;SDS011;4514;49.476;8.484;2024-01-30T12:35:45;12.10;;;10.27;;
8958;SDS011;4514;49.476;8.484;2024-01-30T12:38:31;13.88;;;10.02;;
8958;SDS011;4514;49.476;8.484;2024-01-30T12:41:17;10.20;;;9.15;;
8958;SDS011;4514;49.476;8.484;2024-01-30T12:44:05;12.32;;;9.85;;
8958;SDS011;4514;49.476;8.484;2024-01-30T12:46:51;11.55;;;9.32;;
8958;SDS011;4514;49.476;8.484;2024-01-30T12:49:39;11.48;;;9.88;;
8958;SDS011;4514;49.476;8.484;2024-01-30T12:52:25;11.93;;;9.50;;
8958;SDS011;4514;49.476;8.484;2024-01-30T12:55:11;11.23;;;10.13;;
8958;SDS011;4514;49.476;8.484;2024-01-30T12:57:57;12.57;;;9.32;;
8958;SDS011;4514;49.476;8.484;2024-01-30T13:00:42;11.30;;;9.82;;
8958;SDS011;4514;49.476;8.484;2024-01-30T13:03:28;12.18;;;9.63;;
8958;SDS011;4514;49.476;8.484;2024-01-30T13:06:16;13.73;;;9.57;;
8958;SDS011;4514;49.476;8.484;2024-01-30T13:09:02;10.70;;;9.15;;
8958;SDS011;4514;49.476;8.484;2024-01-30T13:11:49;10.77;;;9.13;;
8958;SDS011;4514;49.476;8.484;2024-01-30T13:14:34;9.90;;;8.90;;
8958;SDS011;4514;49.476;8.484;2024-01-30T13:17:20;11.25;;;9.23;;
8958;SDS011;4514;49.476;8.484;2024-01-30T13:20:08;9.57;;;8.57;;
8958;SDS011;4514;49.476;8.484;2024-01-30T13:22:54;11.10;;;8.98;;
8958;SDS011;4514;49.476;8.484;2024-01-30T13:25:40;12.70;;;9.43;;
8958;SDS011;4514;49.476;8.484;2024-01-30T13:28:27;10.13;;;8.95;;
8958;SDS011;4514;49.476;8.484;2024-01-30T13:31:13;10.82;;;9.23;;
8958;SDS011;4514;49.476;8.484;2024-01-30T13:34:00;14.18;;;8.85;;
8958;SDS011;4514;49.476;8.484;2024-01-30T13:36:46;12.48;;;9.10;;
8958;SDS011;4514;49.476;8.484;2024-01-30T13:39:31;12.82;;;9.00;;
8958;SDS011;4514;49.476;8.484;2024-01-30T13:42:17;11.85;;;8.85;;
8958;SDS011;4514;49.476;8.484;2024-01-30T13:45:03;11.82;;;8.88;;
8958;SDS011;4514;49.476;8.484;2024-01-30T13:47:55;10.80;;;9.13;;
8958;SDS011;4514;49.476;8.484;2024-01-30T13:50:40;11.75;;;9.10;;
8958;SDS011;4514;49.476;8.484;2024-01-30T13:53:26;11.50;;;8.90;;
8958;SDS011;4514;49.476;8.484;2024-01-30T13:56:12;9.32;;;8.27;;
8958;SDS011;4514;49.476;8.484;2024-01-30T13:58:58;10.88;;;8.98;;
8958;SDS011;4514;49.476;8.484;2024-01-30T14:01:45;12.55;;;8.27;;
8958;SDS011;4514;49.476;8.484;2024-01-30T14:04:31;10.60;;;8.45;;
8958;SDS011;4514;49.476;8.484;2024-01-30T14:07:16;12.32;;;9.05;;
8958;SDS011;4514;49.476;8.484;2024-01-30T14:10:03;12.15;;;9.40;;
8958;SDS011;4514;49.476;8.484;2024-01-30T14:12:52;11.65;;;9.10;;
8958;SDS011;4514;49.476;8.484;2024-01-30T14:15:37;11.02;;;8.48;;
8958;SDS011;4514;49.476;8.484;2024-01-30T14:18:23;13.77;;;11.15;;
8958;SDS011;4514;49.476;8.484;2024-01-30T14:21:11;16.08;;;10.88;;
8958;SDS011;4514;49.476;8.484;2024-01-30T14:23:56;14.43;;;11.88;;
8958;SDS011;4514;49.476;8.484;2024-01-30T14:26:42;12.27;;;9.07;;
8958;SDS011;4514;49.476;8.484;2024-01-30T14:29:28;9.07;;;7.68;;
8958;SDS011;4514;49.476;8.484;2024-01-30T14:32:13;10.13;;;7.88;;
8958;SDS011;4514;49.476;8.484;2024-01-30T14:35:00;10.00;;;8.13;;
8958;SDS011;4514;49.476;8.484;2024-01-30T14:37:48;8.68;;;7.78;;
8958;SDS011;4514;49.476;8.484;2024-01-30T14:40:38;11.75;;;8.80;;
8958;SDS011;4514;49.476;8.484;2024-01-30T14:43:24;12.05;;;8.35;;
8958;SDS011;4514;49.476;8.484;2024-01-30T14:46:10;9.85;;;8.27;;
8958;SDS011;4514;49.476;8.484;2024-01-30T14:48:56;9.32;;;8.07;;
8958;SDS011;4514;49.476;8.484;2024-01-30T14:51:43;9.25;;;7.70;;
8958;SDS011;4514;49.476;8.484;2024-01-30T14:54:28;11.40;;;8.13;;
8958;SDS011;4514;49.476;8.484;2024-01-30T14:57:14;14.55;;;9.65;;
8958;SDS011;4514;49.476;8.484;2024-01-30T15:00:00;9.00;;;8.10;;
8958;SDS011;4514;49.476;8.484;2024-01-30T15:02:46;9.60;;;7.88;;
8958;SDS011;4514;49.476;8.484;2024-01-30T15:05:32;9.10;;;7.55;;
8958;SDS011;4514;49.476;8.484;2024-01-30T15:08:17;9.00;;;7.07;;
8958;SDS011;4514;49.476;8.484;2024-01-30T15:11:03;9.68;;;7.82;;
8958;SDS011;4514;49.476;8.484;2024-01-30T15:13:50;12.43;;;7.57;;
8958;SDS011;4514;49.476;8.484;2024-01-30T15:16:36;10.40;;;7.20;;
8958;SDS011;4514;49.476;8.484;2024-01-30T15:19:21;10.55;;;7.45;;
8958;SDS011;4514;49.476;8.484;2024-01-30T15:22:07;13.55;;;7.68;;
8958;SDS011;4514;49.476;8.484;2024-01-30T15:24:53;10.43;;;7.20;;
8958;SDS011;4514;49.476;8.484;2024-01-30T15:27:39;11.65;;;7.18;;
8958;SDS011;4514;49.476;8.484;2024-01-30T15:30:24;9.18;;;7.47;;
8958;SDS011;4514;49.476;8.484;2024-01-30T15:33:10;10.57;;;7.28;;
8958;SDS011;4514;49.476;8.484;2024-01-30T15:35:56;11.35;;;7.30;;
8958;SDS011;4514;49.476;8.484;2024-01-30T15:38:43;9.20;;;7.60;;
8958;SDS011;4514;49.476;8.484;2024-01-30T15:41:28;9.98;;;7.90;;
8958;SDS011;4514;49.476;8.484;2024-01-30T15:44:14;8.52;;;6.82;;
8958;SDS011;4514;49.476;8.484;2024-01-30T15:47:00;10.27;;;7.10;;
8958;SDS011;4514;49.476;8.484;2024-01-30T15:49:46;8.27;;;7.25;;
8958;SDS011;4514;49.476;8.484;2024-01-30T15:52:32;10.07;;;6.93;;
8958;SDS011;4514;49.476;8.484;2024-01-30T15:55:17;11.13;;;6.90;;
8958;SDS011;4514;49.476;8.484;2024-01-30T15:58:05;10.57;;;7.20;;
8958;SDS011;4514;49.476;8.484;2024-01-30T16:00:52;9.63;;;7.28;;
8958;SDS011;4514;49.476;8.484;2024-01-30T16:03:38;9.07;;;7.25;;
8958;SDS011;4514;49.476;8.484;2024-01-30T16:06:29;7.75;;;6.95;;
8958;SDS011;4514;49.476;8.484;2024-01-30T16:09:14;10.35;;;7.10;;
8958;SDS011;4514;49.476;8.484;2024-01-30T16:12:02;7.28;;;6.57;;
8958;SDS011;4514;49.476;8.484;2024-01-30T16:14:48;8.63;;;7.25;;
8958;SDS011;4514;49.476;8.484;2024-01-30T16:17:34;8.02;;;6.95;;
8958;SDS011;4514;49.476;8.484;2024-01-30T16:20:20;7.75;;;6.85;;
8958;SDS011;4514;49.476;8.484;2024-01-30T16:23:05;8.45;;;7.47;;
8958;SDS011;4514;49.476;8.484;2024-01-30T16:25:51;8.75;;;7.25;;
8958;SDS011;4514;49.476;8.484;2024-01-30T16:28:37;9.68;;;7.32;;
8958;SDS011;4514;49.476;8.484;2024-01-30T16:31:23;9.50;;;7.03;;
8958;SDS011;4514;49.476;8.484;2024-01-30T16:34:08;8.05;;;6.60;;
8958;SDS011;4514;49.476;8.484;2024-01-30T16:36:54;7.28;;;6.47;;
8958;SDS011;4514;49.476;8.484;2024-01-30T16:39:40;8.20;;;7.00;;
8958;SDS011;4514;49.476;8.484;2024-01-30T16:42:26;11.05;;;7.57;;
8958;SDS011;4514;49.476;8.484;2024-01-30T16:45:12;9.60;;;7.07;;
8958;SDS011;4514;49.476;8.484;2024-01-30T16:47:58;8.35;;;7.10;;
8958;SDS011;4514;49.476;8.484;2024-01-30T16:50:43;9.75;;;6.90;;
8958;SDS011;4514;49.476;8.484;2024-01-30T16:53:29;10.77;;;7.13;;
8958;SDS011;4514;49.476;8.484;2024-01-30T16:56:15;10.10;;;6.88;;